WEER

WEER2018-09-17T10:26:03+00:00

Local

EHAM

EHAM 210955Z 26024G34KT 9999 FEW025 14/09 Q1004 NOSIG

EHAM

TAF EHAM 210424Z 2106/2212 22025G37KT 9999 BKN040 TEMPO 2106/2107 24028G43KT 6000 RA -SHRA SCT018TCU BKN025 BECMG 2106/2108 26027G40KT SCT025 BECMG 2109/2112 24023G35KT TEMPO 2116/2204 6000 SHRA SCT022CB BKN030 PROB40 TEMPO 2116/2121 25027G40KT 4000 TSRAGS BECMG 2119/2122 28020G30KT BECMG 2122/2201 27013KT

METAR Cross-country

EHKD

EHKD 210955Z AUTO 26026KT 9999 FEW027 14/08 Q1002 BLU 25026G36KT 9999 SCT027 BKN040 TEMPO FEW020CB BKN030

EHGG

EHGG 210955Z AUTO 26019KT 220V290 9999 BKN029 BKN033 16/10 Q1001 BECMG 26020G30KT

EDLW

EHLW 210955Z AUTO 26024KT 230V290 9999 SCT033 BKN041 BKN049 15/07 Q1001 BLU 25025G35KT 9999 SCT028 SCT040 RMK R23

EDDW

EDDW 211020Z 26024G40KT 4800 RADZ BKN010 OVC080 15/13 Q1002 BECMG 9999 NSW BKN020

EHRD

EHRD 210955Z AUTO 27017G29KT 230V300 9999 SCT031 BKN035 BKN044 15/08 Q1005 NOSIG

EHDL

EHDL 210955Z AUTO 24012KT 180V310 9999 BKN030 BKN035 OVC039 16/11 Q1004 BLU

EHEH

EHEH 210955Z AUTO 25015KT 210V300 9999 SCT053 BKN059 BKN069 17/11 Q1006 BLU 26012G24KT 9999 FEW020 BKN050

EBAW

EBAW 210950Z 27018KT 9999 SCT027 BKN035 16/07 Q1007 TEMPO 21018G32KT

EHBK

EHBK 210955Z AUTO 22013KT 9999 NSC 14/12 Q1008 BECMG 24020G30KT

TAF Cross-country

EHKD

TAF EHKD 210830Z 2109/2121 26025G35KT 9999 FEW025 SCT040 TEMPO 2110/2121 FEW022CB BKN030 PROB40 TEMPO 2116/2121 28028G40KT 4500 SHRA TSRAGR FEW015 SCT020CB BKN025

EHGG

TAF EHGG 210456Z 2106/2212 19020G30KT 9999 SCT030 BECMG 2106/2109 24025G38KT TEMPO 2106/2109 6000 RA SCT025 BKN030 PROB30 TEMPO 2107/2109 25028G43KT 4000 SHRA SCT020CB BKN025 PROB40 TEMPO 2112/2118 25028G43KT 6000 SHRA SCT022CB BECMG 2118/2121 24015G25KT TEMPO 2118/2212 6000 SHRA SCT020CB PROB30 TEMPO 2118/2124 26027G40KT 4000 TSRAGS SCT012 SCT018CB BKN022 BECMG 2122/2201 25010KT BECMG 2207/2210 26015G25KT

EDDW

TAF EDDW 210500Z 2106/2206 21015G25KT 9999 SCT030 BECMG 2107/2109 24020G35KT TEMPO 2108/2111 24025G45KT 4500 RA PROB30 TEMPO 2111/2115 24025G45KT BECMG 2115/2118 25015G25KT BECMG 2118/2120 25012KT PROB30 TEMPO 2120/2206 25015G25KT SHRA BKN020CB

EHRD

TAF TAF EHRD 210428Z 2106/2212 22025G35KT 9999 BKN040 TEMPO 2106/2107 24028G42KT 6000 RA -SHRA SCT018TCU BKN025 BECMG 2106/2108 26026G38KT SCT025 BECMG 2109/2112 24022G33KT TEMPO 2116/2204 6000 SHRA SCT022CB BKN030 PROB40 TEMPO 2116/2121 25026G38KT 4000 TSRAGS BECMG 2119/2122 28018G28KT BECMG 2122/2201 27012KT

EHEH

TAF EHEH 210506Z 2106/2212 20015G30KT 9999 BKN030 TEMPO 2106/2109 24020G38KT 4000 SHRA RA SCT015 SCT020CB BKN022 BECMG 2107/2109 26018G32KT PROB40 TEMPO 2119/2124 4000 SHRA SCT030CB BKN040 BECMG 2121/2124 25010G20KT BECMG 2200/2203 25009KT

EHBK

TAF EHBK 210456Z 2106/2212 20020G30KT CAVOK TEMPO 2106/2110 24024G36KT 6000 RA SCT025 BKN030 BECMG 2107/2110 26020G30KT BECMG 2116/2119 23018G28KT PROB30 TEMPO 2121/2206 6000 SHRA SCT025CB BECMG 2200/2203 23012KT

Weerbulletin KNMI

Gebruik deze link voor hoogtewinden en omschrijving weersituatie voor de kleine luchtvaart.

Weerminima

Gebruik deze link voor onze weerminima bij lokale- en overland (Dual en Solo) lesvluchten.

Verwachte regenval vandaag

6 UTC

12 UTC

18 UTC

Disclaimer: Deze tool helpt bij een veilige vluchtuitvoering en de Pilot In Command blijft verantwoordelijk voor gebruik van de originele en meest actuele bronnen. Refresh deze pagina voor het meest actuele weer.